Estación de Purranque

Ultimos registro cada 15 minutos 49
Estación Fecha / Hora Temperatura Humedad Lluvia Velocidad Dirección Radiación Presion
49 Purranque 31-08-2026 12:00 9 90,1 0 2,7 22 258,1 1011,1
48 Purranque 31-08-2026 11:45 8,8 90,8 0 2,7 21 274,4 1010,8
47 Purranque 31-08-2026 11:30 8,3 90,7 0 2,7 20 240,6 1010,9
46 Purranque 31-08-2026 11:15 8,1 92,2 0 2,7 22 216,9 1010,8
45 Purranque 31-08-2026 11:00 7,9 93 0 2,3 24 300,6 1010,9
44 Purranque 31-08-2026 10:45 7,4 92,8 0 2,3 27 288,1 1011
43 Purranque 31-08-2026 10:30 7,2 95,4 0 2,3 14 236,9 1010,9
42 Purranque 31-08-2026 10:15 6,6 95,7 0 2,3 17 253,1 1010,8
41 Purranque 31-08-2026 10:00 6,3 97,2 0 2 8 204,4 1010,8
40 Purranque 31-08-2026 09:45 6 97,5 0 1,7 13 146,9 1010,7
39 Purranque 31-08-2026 09:30 5,7 99,3 0 1,7 20 196,9 1010,4
38 Purranque 31-08-2026 09:15 5,4 100 0 1,7 29 208,1 1010
37 Purranque 31-08-2026 09:00 4,9 100 0 1,7 34 150,6 1010
36 Purranque 31-08-2026 08:45 4,6 100 0 1,7 39 81,9 1009,7
35 Purranque 31-08-2026 08:30 4,6 100 0 1 21 61,9 1009,8
34 Purranque 31-08-2026 08:15 4,4 100 0,2 1 334 39,4 1009,5
33 Purranque 31-08-2026 08:00 4,4 100 0 1,3 326 9,4 1009,5
32 Purranque 31-08-2026 07:45 4,2 100 0 1 351 8,1 1009,2
31 Purranque 31-08-2026 07:30 4,3 100 0 1 337 8,1 1008,8
30 Purranque 31-08-2026 07:15 4,3 100 0 1 0 0,6 1008,5
29 Purranque 31-08-2026 07:00 4,2 100 0 1 22 0,6 1008,5
28 Purranque 31-08-2026 06:45 4 100 0,2 0,7 20 0,6 1008,5
27 Purranque 31-08-2026 06:30 3,9 100 0 1 22 0,6 1008,2
26 Purranque 31-08-2026 06:15 3,7 100 0 1 17 0,6 1008,2
25 Purranque 31-08-2026 06:00 3,5 100 0 0,7 8 0,6 1008,1
24 Purranque 31-08-2026 05:45 3,3 100 0 0,7 11 0,6 1008
23 Purranque 31-08-2026 05:30 3,3 100 0 0 86 0,6 1007,7
22 Purranque 31-08-2026 05:15 2,8 100 0 0 138 0,6 1007,4
21 Purranque 31-08-2026 05:00 2,7 100 0 0 139 0,6 1007,3
20 Purranque 31-08-2026 04:45 1,7 100 0 0 139 0,6 1007,1
19 Purranque 31-08-2026 04:30 0,4 100 0 0,3 139 0,6 1007
18 Purranque 31-08-2026 04:15 -0,4 100 0 0 139 0,6 1007,1
17 Purranque 31-08-2026 04:00 0 100 0 0 139 0,6 1007,2
16 Purranque 31-08-2026 03:45 -0,3 100 0 0 139 0,6 1007
15 Purranque 31-08-2026 03:30 0,2 100 0 0 139 0,6 1007,1
14 Purranque 31-08-2026 03:15 0,4 100 0 0 139 0,6 1007
13 Purranque 31-08-2026 03:00 1,2 100 0 0 139 0,6 1006,9
12 Purranque 31-08-2026 02:45 1,9 100 0 0 139 0,6 1006,8
11 Purranque 31-08-2026 02:30 1,2 100 0 0 139 0,6 1006,7
10 Purranque 31-08-2026 02:15 1,6 100 0 0 139 0,6 1006,4
9 Purranque 31-08-2026 02:00 1,2 100 0 0,3 139 0,6 1006,5
8 Purranque 31-08-2026 01:45 1,8 100 0 0 139 0,6 1006,3
7 Purranque 31-08-2026 01:30 3,3 100 0 0,3 139 0,6 1006,2
6 Purranque 31-08-2026 01:15 3,1 100 0 0,3 139 0,6 1006,1
5 Purranque 31-08-2026 01:00 3,4 100 0 0,7 67 0,6 1006,1
4 Purranque 31-08-2026 00:45 4,2 100 0 0,3 24 0,6 1006,1
3 Purranque 31-08-2026 00:30 4,5 100 0 0,7 24 0,6 1006
2 Purranque 31-08-2026 00:15 4,2 100 0 0,3 24 0,6 1005,9
1 Purranque 31-08-2026 00:00 4,4 99,2 0 0,3 24 0,6 1006